sensor_id;sensor_type;location;lat;lon;timestamp;temperature;humidity
7472;DHT22;3777;48.722;8.110;2023-09-12T00:00:08;20.40;99.90
7472;DHT22;3777;48.722;8.110;2023-09-12T00:02:35;20.40;99.90
7472;DHT22;3777;48.722;8.110;2023-09-12T00:05:02;20.40;99.90
7472;DHT22;3777;48.722;8.110;2023-09-12T00:07:29;20.40;99.90
7472;DHT22;3777;48.722;8.110;2023-09-12T00:09:56;20.40;99.90
7472;DHT22;3777;48.722;8.110;2023-09-12T00:12:24;20.30;99.90
7472;DHT22;3777;48.722;8.110;2023-09-12T00:14:51;20.30;99.90
7472;DHT22;3777;48.722;8.110;2023-09-12T00:17:18;20.30;99.90
7472;DHT22;3777;48.722;8.110;2023-09-12T00:19:45;20.30;99.90
7472;DHT22;3777;48.722;8.110;2023-09-12T00:22:12;20.30;99.90
7472;DHT22;3777;48.722;8.110;2023-09-12T00:24:38;20.30;99.90
7472;DHT22;3777;48.722;8.110;2023-09-12T00:27:05;20.20;99.90
7472;DHT22;3777;48.722;8.110;2023-09-12T00:29:34;20.20;99.90
7472;DHT22;3777;48.722;8.110;2023-09-12T00:32:01;20.20;99.90
7472;DHT22;3777;48.722;8.110;2023-09-12T00:34:27;20.20;99.90
7472;DHT22;3777;48.722;8.110;2023-09-12T00:36:54;20.20;99.90
7472;DHT22;3777;48.722;8.110;2023-09-12T00:39:21;20.20;99.90
7472;DHT22;3777;48.722;8.110;2023-09-12T00:41:48;20.10;99.90
7472;DHT22;3777;48.722;8.110;2023-09-12T00:44:14;20.10;99.90
7472;DHT22;3777;48.722;8.110;2023-09-12T00:46:44;20.10;99.90
7472;DHT22;3777;48.722;8.110;2023-09-12T00:49:12;20.00;99.90
7472;DHT22;3777;48.722;8.110;2023-09-12T00:51:41;19.90;99.90
7472;DHT22;3777;48.722;8.110;2023-09-12T00:54:09;19.90;99.90
7472;DHT22;3777;48.722;8.110;2023-09-12T00:56:36;19.90;99.90
7472;DHT22;3777;48.722;8.110;2023-09-12T00:59:04;19.90;99.90
7472;DHT22;3777;48.722;8.110;2023-09-12T01:01:32;19.90;99.90
7472;DHT22;3777;48.722;8.110;2023-09-12T01:04:00;19.90;99.90
7472;DHT22;3777;48.722;8.110;2023-09-12T01:06:29;19.80;99.90
7472;DHT22;3777;48.722;8.110;2023-09-12T01:08:56;19.80;99.90
7472;DHT22;3777;48.722;8.110;2023-09-12T01:11:23;19.80;99.90
7472;DHT22;3777;48.722;8.110;2023-09-12T01:13:50;19.80;99.90
7472;DHT22;3777;48.722;8.110;2023-09-12T01:16:17;19.80;99.90
7472;DHT22;3777;48.722;8.110;2023-09-12T01:18:44;19.80;99.90
7472;DHT22;3777;48.722;8.110;2023-09-12T01:24:31;19.80;99.90
7472;DHT22;3777;48.722;8.110;2023-09-12T01:27:25;19.80;99.90
7472;DHT22;3777;48.722;8.110;2023-09-12T01:29:57;19.70;99.90
7472;DHT22;3777;48.722;8.110;2023-09-12T01:32:23;19.80;99.90
7472;DHT22;3777;48.722;8.110;2023-09-12T01:34:50;19.80;99.90
7472;DHT22;3777;48.722;8.110;2023-09-12T01:37:17;19.80;99.90
7472;DHT22;3777;48.722;8.110;2023-09-12T01:39:44;19.80;99.90
7472;DHT22;3777;48.722;8.110;2023-09-12T01:42:14;19.80;99.90
7472;DHT22;3777;48.722;8.110;2023-09-12T01:44:44;19.80;99.90
7472;DHT22;3777;48.722;8.110;2023-09-12T01:47:12;19.80;99.90
7472;DHT22;3777;48.722;8.110;2023-09-12T01:49:42;19.80;99.90
7472;DHT22;3777;48.722;8.110;2023-09-12T01:52:09;19.80;99.90
7472;DHT22;3777;48.722;8.110;2023-09-12T01:54:37;19.80;99.90
7472;DHT22;3777;48.722;8.110;2023-09-12T01:57:05;19.80;99.90
7472;DHT22;3777;48.722;8.110;2023-09-12T01:59:32;19.80;99.90
7472;DHT22;3777;48.722;8.110;2023-09-12T02:02:00;19.80;99.90
7472;DHT22;3777;48.722;8.110;2023-09-12T02:04:27;19.80;99.90
7472;DHT22;3777;48.722;8.110;2023-09-12T02:06:54;19.80;99.90
7472;DHT22;3777;48.722;8.110;2023-09-12T02:09:21;19.70;99.90
7472;DHT22;3777;48.722;8.110;2023-09-12T02:11:49;19.70;99.90
7472;DHT22;3777;48.722;8.110;2023-09-12T02:14:15;19.70;99.90
7472;DHT22;3777;48.722;8.110;2023-09-12T02:16:43;19.70;99.90
7472;DHT22;3777;48.722;8.110;2023-09-12T02:19:11;19.70;99.90
7472;DHT22;3777;48.722;8.110;2023-09-12T02:21:38;19.70;99.90
7472;DHT22;3777;48.722;8.110;2023-09-12T02:24:06;19.70;99.90
7472;DHT22;3777;48.722;8.110;2023-09-12T02:26:32;19.70;99.90
7472;DHT22;3777;48.722;8.110;2023-09-12T02:29:02;19.70;99.90
7472;DHT22;3777;48.722;8.110;2023-09-12T02:31:29;19.70;99.90
7472;DHT22;3777;48.722;8.110;2023-09-12T02:33:56;19.70;99.90
7472;DHT22;3777;48.722;8.110;2023-09-12T02:36:24;19.70;99.90
7472;DHT22;3777;48.722;8.110;2023-09-12T02:38:50;19.70;99.90
7472;DHT22;3777;48.722;8.110;2023-09-12T02:41:17;19.60;99.90
7472;DHT22;3777;48.722;8.110;2023-09-12T02:43:44;19.60;99.90
7472;DHT22;3777;48.722;8.110;2023-09-12T02:46:11;19.60;99.90
7472;DHT22;3777;48.722;8.110;2023-09-12T02:48:37;19.60;99.90
7472;DHT22;3777;48.722;8.110;2023-09-12T02:51:04;19.60;99.90
7472;DHT22;3777;48.722;8.110;2023-09-12T02:53:32;19.60;99.90
7472;DHT22;3777;48.722;8.110;2023-09-12T02:55:59;19.60;99.90
7472;DHT22;3777;48.722;8.110;2023-09-12T02:58:26;19.60;99.90
7472;DHT22;3777;48.722;8.110;2023-09-12T03:00:53;19.50;99.90
7472;DHT22;3777;48.722;8.110;2023-09-12T03:03:20;19.50;99.90
7472;DHT22;3777;48.722;8.110;2023-09-12T03:05:47;19.50;99.90
7472;DHT22;3777;48.722;8.110;2023-09-12T03:08:13;19.50;99.90
7472;DHT22;3777;48.722;8.110;2023-09-12T03:10:41;19.50;99.90
7472;DHT22;3777;48.722;8.110;2023-09-12T03:13:08;19.50;99.90
7472;DHT22;3777;48.722;8.110;2023-09-12T03:15:37;19.40;99.90
7472;DHT22;3777;48.722;8.110;2023-09-12T03:18:07;19.40;99.90
7472;DHT22;3777;48.722;8.110;2023-09-12T03:20:37;19.50;99.90
7472;DHT22;3777;48.722;8.110;2023-09-12T03:23:04;19.40;99.90
7472;DHT22;3777;48.722;8.110;2023-09-12T03:25:35;19.40;99.90
7472;DHT22;3777;48.722;8.110;2023-09-12T03:28:04;19.30;99.90
7472;DHT22;3777;48.722;8.110;2023-09-12T03:30:32;19.20;99.90
7472;DHT22;3777;48.722;8.110;2023-09-12T03:32:59;19.20;99.90
7472;DHT22;3777;48.722;8.110;2023-09-12T03:35:27;19.20;99.90
7472;DHT22;3777;48.722;8.110;2023-09-12T03:37:53;19.30;99.90
7472;DHT22;3777;48.722;8.110;2023-09-12T03:40:20;19.40;99.90
7472;DHT22;3777;48.722;8.110;2023-09-12T03:42:47;19.40;99.90
7472;DHT22;3777;48.722;8.110;2023-09-12T03:45:15;19.40;99.90
7472;DHT22;3777;48.722;8.110;2023-09-12T03:47:42;19.40;99.90
7472;DHT22;3777;48.722;8.110;2023-09-12T03:50:12;19.50;99.90
7472;DHT22;3777;48.722;8.110;2023-09-12T03:52:39;19.50;99.90
7472;DHT22;3777;48.722;8.110;2023-09-12T03:55:06;19.50;99.90
7472;DHT22;3777;48.722;8.110;2023-09-12T03:57:33;19.50;99.90
7472;DHT22;3777;48.722;8.110;2023-09-12T04:00:00;19.50;99.90
7472;DHT22;3777;48.722;8.110;2023-09-12T04:02:31;19.60;99.90
7472;DHT22;3777;48.722;8.110;2023-09-12T04:04:57;19.60;99.90
7472;DHT22;3777;48.722;8.110;2023-09-12T04:07:25;19.60;99.90
7472;DHT22;3777;48.722;8.110;2023-09-12T04:09:51;19.60;99.90
7472;DHT22;3777;48.722;8.110;2023-09-12T04:12:18;19.60;99.90
7472;DHT22;3777;48.722;8.110;2023-09-12T04:14:45;19.60;99.90
7472;DHT22;3777;48.722;8.110;2023-09-12T04:17:12;19.60;99.90
7472;DHT22;3777;48.722;8.110;2023-09-12T04:19:40;19.60;99.90
7472;DHT22;3777;48.722;8.110;2023-09-12T04:22:07;19.60;99.90
7472;DHT22;3777;48.722;8.110;2023-09-12T04:24:33;19.60;99.90
7472;DHT22;3777;48.722;8.110;2023-09-12T04:27:00;19.60;99.90
7472;DHT22;3777;48.722;8.110;2023-09-12T04:29:28;19.60;99.90
7472;DHT22;3777;48.722;8.110;2023-09-12T04:31:55;19.60;99.90
7472;DHT22;3777;48.722;8.110;2023-09-12T04:34:25;19.50;99.90
7472;DHT22;3777;48.722;8.110;2023-09-12T04:36:53;19.50;99.90
7472;DHT22;3777;48.722;8.110;2023-09-12T04:39:20;19.40;99.90
7472;DHT22;3777;48.722;8.110;2023-09-12T04:41:47;19.40;99.90
7472;DHT22;3777;48.722;8.110;2023-09-12T04:44:14;19.40;99.90
7472;DHT22;3777;48.722;8.110;2023-09-12T04:46:41;19.40;99.90
7472;DHT22;3777;48.722;8.110;2023-09-12T04:49:07;19.30;99.90
7472;DHT22;3777;48.722;8.110;2023-09-12T04:51:34;19.30;99.90
7472;DHT22;3777;48.722;8.110;2023-09-12T04:54:03;19.20;99.90
7472;DHT22;3777;48.722;8.110;2023-09-12T04:56:30;19.20;99.90
7472;DHT22;3777;48.722;8.110;2023-09-12T04:58:56;19.20;99.90
7472;DHT22;3777;48.722;8.110;2023-09-12T05:01:23;19.10;99.90
7472;DHT22;3777;48.722;8.110;2023-09-12T05:03:51;19.10;99.90
7472;DHT22;3777;48.722;8.110;2023-09-12T05:06:17;19.10;99.90
7472;DHT22;3777;48.722;8.110;2023-09-12T05:08:44;19.10;99.90
7472;DHT22;3777;48.722;8.110;2023-09-12T05:11:12;19.00;99.90
7472;DHT22;3777;48.722;8.110;2023-09-12T05:13:39;19.00;99.90
7472;DHT22;3777;48.722;8.110;2023-09-12T05:16:06;19.00;99.90
7472;DHT22;3777;48.722;8.110;2023-09-12T05:18:33;19.00;99.90
7472;DHT22;3777;48.722;8.110;2023-09-12T05:21:00;19.00;99.90
7472;DHT22;3777;48.722;8.110;2023-09-12T05:23:27;19.00;99.90
7472;DHT22;3777;48.722;8.110;2023-09-12T05:25:54;19.00;99.90
7472;DHT22;3777;48.722;8.110;2023-09-12T05:28:22;19.00;99.90
7472;DHT22;3777;48.722;8.110;2023-09-12T05:30:49;19.00;99.90
7472;DHT22;3777;48.722;8.110;2023-09-12T05:33:16;19.00;99.90
7472;DHT22;3777;48.722;8.110;2023-09-12T05:35:43;19.10;99.90
7472;DHT22;3777;48.722;8.110;2023-09-12T05:38:10;19.10;99.90
7472;DHT22;3777;48.722;8.110;2023-09-12T05:40:37;19.10;99.90
7472;DHT22;3777;48.722;8.110;2023-09-12T05:43:04;19.10;99.90
7472;DHT22;3777;48.722;8.110;2023-09-12T05:45:32;19.20;99.90
7472;DHT22;3777;48.722;8.110;2023-09-12T05:47:59;19.30;99.90
7472;DHT22;3777;48.722;8.110;2023-09-12T05:50:26;19.40;99.90
7472;DHT22;3777;48.722;8.110;2023-09-12T05:52:52;19.40;99.90
7472;DHT22;3777;48.722;8.110;2023-09-12T05:55:19;19.50;99.90
7472;DHT22;3777;48.722;8.110;2023-09-12T05:57:46;19.60;99.90
7472;DHT22;3777;48.722;8.110;2023-09-12T06:00:17;19.70;99.90
7472;DHT22;3777;48.722;8.110;2023-09-12T06:02:46;19.80;99.90
7472;DHT22;3777;48.722;8.110;2023-09-12T06:05:13;20.00;99.90
7472;DHT22;3777;48.722;8.110;2023-09-12T06:07:40;20.20;99.90
7472;DHT22;3777;48.722;8.110;2023-09-12T06:10:08;20.30;99.90
7472;DHT22;3777;48.722;8.110;2023-09-12T06:12:35;20.40;99.90
7472;DHT22;3777;48.722;8.110;2023-09-12T06:15:02;20.60;99.90
7472;DHT22;3777;48.722;8.110;2023-09-12T06:17:29;20.60;99.90
7472;DHT22;3777;48.722;8.110;2023-09-12T06:19:58;20.70;99.90
7472;DHT22;3777;48.722;8.110;2023-09-12T06:22:24;20.80;99.90
7472;DHT22;3777;48.722;8.110;2023-09-12T06:24:52;20.80;99.90
7472;DHT22;3777;48.722;8.110;2023-09-12T06:27:18;20.90;99.90
7472;DHT22;3777;48.722;8.110;2023-09-12T06:29:45;21.00;99.90
7472;DHT22;3777;48.722;8.110;2023-09-12T06:32:13;21.00;99.90
7472;DHT22;3777;48.722;8.110;2023-09-12T06:34:40;21.00;99.90
7472;DHT22;3777;48.722;8.110;2023-09-12T06:37:08;21.10;99.90
7472;DHT22;3777;48.722;8.110;2023-09-12T06:39:35;21.10;99.90
7472;DHT22;3777;48.722;8.110;2023-09-12T06:42:02;21.20;99.90
7472;DHT22;3777;48.722;8.110;2023-09-12T06:44:29;21.30;99.90
7472;DHT22;3777;48.722;8.110;2023-09-12T06:46:55;21.30;99.90
7472;DHT22;3777;48.722;8.110;2023-09-12T06:49:22;21.40;99.90
7472;DHT22;3777;48.722;8.110;2023-09-12T06:51:49;21.60;99.90
7472;DHT22;3777;48.722;8.110;2023-09-12T06:54:17;21.60;99.90
7472;DHT22;3777;48.722;8.110;2023-09-12T06:56:44;21.80;99.90
7472;DHT22;3777;48.722;8.110;2023-09-12T06:59:11;21.90;99.90
7472;DHT22;3777;48.722;8.110;2023-09-12T07:01:38;22.00;99.90
7472;DHT22;3777;48.722;8.110;2023-09-12T07:04:05;22.10;99.90
7472;DHT22;3777;48.722;8.110;2023-09-12T07:06:31;22.30;99.90
7472;DHT22;3777;48.722;8.110;2023-09-12T07:08:59;22.40;99.90
7472;DHT22;3777;48.722;8.110;2023-09-12T07:11:27;22.50;99.90
7472;DHT22;3777;48.722;8.110;2023-09-12T07:13:54;22.50;99.90
7472;DHT22;3777;48.722;8.110;2023-09-12T07:16:20;22.60;99.90
7472;DHT22;3777;48.722;8.110;2023-09-12T07:18:48;22.70;99.90
7472;DHT22;3777;48.722;8.110;2023-09-12T07:21:16;22.90;99.90
7472;DHT22;3777;48.722;8.110;2023-09-12T07:23:43;22.90;99.90
7472;DHT22;3777;48.722;8.110;2023-09-12T07:26:12;23.10;99.90
7472;DHT22;3777;48.722;8.110;2023-09-12T07:28:41;23.20;99.90
7472;DHT22;3777;48.722;8.110;2023-09-12T07:31:08;23.20;99.90
7472;DHT22;3777;48.722;8.110;2023-09-12T07:33:34;23.30;99.90
7472;DHT22;3777;48.722;8.110;2023-09-12T07:36:01;23.40;99.90
7472;DHT22;3777;48.722;8.110;2023-09-12T07:38:29;23.50;99.90
7472;DHT22;3777;48.722;8.110;2023-09-12T07:40:56;23.70;99.90
7472;DHT22;3777;48.722;8.110;2023-09-12T07:43:23;23.70;99.90
7472;DHT22;3777;48.722;8.110;2023-09-12T07:45:56;23.60;99.90
7472;DHT22;3777;48.722;8.110;2023-09-12T07:48:23;23.70;99.90
7472;DHT22;3777;48.722;8.110;2023-09-12T07:50:49;23.80;99.90
7472;DHT22;3777;48.722;8.110;2023-09-12T07:53:17;23.90;99.90
7472;DHT22;3777;48.722;8.110;2023-09-12T07:55:44;24.00;99.90
7472;DHT22;3777;48.722;8.110;2023-09-12T07:58:12;24.30;99.90
7472;DHT22;3777;48.722;8.110;2023-09-12T08:00:39;24.40;99.90
7472;DHT22;3777;48.722;8.110;2023-09-12T08:03:08;24.40;99.90
7472;DHT22;3777;48.722;8.110;2023-09-12T08:05:35;24.70;99.90
7472;DHT22;3777;48.722;8.110;2023-09-12T08:08:02;24.90;99.90
7472;DHT22;3777;48.722;8.110;2023-09-12T08:10:28;25.00;99.90
7472;DHT22;3777;48.722;8.110;2023-09-12T08:12:55;25.10;99.90
7472;DHT22;3777;48.722;8.110;2023-09-12T08:15:22;25.30;99.90
7472;DHT22;3777;48.722;8.110;2023-09-12T08:17:49;25.30;99.90
7472;DHT22;3777;48.722;8.110;2023-09-12T08:20:19;25.30;99.90
7472;DHT22;3777;48.722;8.110;2023-09-12T08:22:46;25.50;99.90
7472;DHT22;3777;48.722;8.110;2023-09-12T08:25:13;25.60;99.90
7472;DHT22;3777;48.722;8.110;2023-09-12T08:27:40;25.80;99.90
7472;DHT22;3777;48.722;8.110;2023-09-12T08:30:10;26.20;99.90
7472;DHT22;3777;48.722;8.110;2023-09-12T08:32:37;26.20;99.90
7472;DHT22;3777;48.722;8.110;2023-09-12T08:35:06;26.40;99.90
7472;DHT22;3777;48.722;8.110;2023-09-12T08:37:34;26.40;99.90
7472;DHT22;3777;48.722;8.110;2023-09-12T08:40:01;26.60;99.90
7472;DHT22;3777;48.722;8.110;2023-09-12T08:42:36;27.10;99.90
7472;DHT22;3777;48.722;8.110;2023-09-12T08:45:08;27.10;99.90
7472;DHT22;3777;48.722;8.110;2023-09-12T08:47:39;27.10;99.90
7472;DHT22;3777;48.722;8.110;2023-09-12T08:50:10;27.10;99.90
7472;DHT22;3777;48.722;8.110;2023-09-12T08:52:39;27.40;99.90
7472;DHT22;3777;48.722;8.110;2023-09-12T08:55:06;27.80;99.90
7472;DHT22;3777;48.722;8.110;2023-09-12T08:57:35;27.70;99.90
7472;DHT22;3777;48.722;8.110;2023-09-12T09:00:03;27.90;99.90
7472;DHT22;3777;48.722;8.110;2023-09-12T09:02:32;28.20;99.90
7472;DHT22;3777;48.722;8.110;2023-09-12T09:05:00;28.50;99.90
7472;DHT22;3777;48.722;8.110;2023-09-12T09:07:31;28.70;99.90
7472;DHT22;3777;48.722;8.110;2023-09-12T09:10:02;28.80;99.90
7472;DHT22;3777;48.722;8.110;2023-09-12T09:12:29;29.20;99.90
7472;DHT22;3777;48.722;8.110;2023-09-12T09:14:56;29.80;99.90
7472;DHT22;3777;48.722;8.110;2023-09-12T09:17:23;30.20;99.90
7472;DHT22;3777;48.722;8.110;2023-09-12T09:19:50;30.90;99.90
7472;DHT22;3777;48.722;8.110;2023-09-12T09:22:17;31.00;99.90
7472;DHT22;3777;48.722;8.110;2023-09-12T09:24:43;31.50;99.90
7472;DHT22;3777;48.722;8.110;2023-09-12T09:27:12;31.90;99.90
7472;DHT22;3777;48.722;8.110;2023-09-12T09:29:48;32.10;99.90
7472;DHT22;3777;48.722;8.110;2023-09-12T09:32:18;33.00;99.90
7472;DHT22;3777;48.722;8.110;2023-09-12T09:34:47;34.40;99.90
7472;DHT22;3777;48.722;8.110;2023-09-12T09:37:14;35.40;99.90
7472;DHT22;3777;48.722;8.110;2023-09-12T09:39:45;35.90;99.90
7472;DHT22;3777;48.722;8.110;2023-09-12T09:42:14;36.60;99.90
7472;DHT22;3777;48.722;8.110;2023-09-12T09:44:41;37.00;99.90
7472;DHT22;3777;48.722;8.110;2023-09-12T09:47:08;37.30;98.80
7472;DHT22;3777;48.722;8.110;2023-09-12T09:49:35;37.60;97.30
7472;DHT22;3777;48.722;8.110;2023-09-12T09:52:04;37.70;94.20
7472;DHT22;3777;48.722;8.110;2023-09-12T09:54:30;37.10;93.10
7472;DHT22;3777;48.722;8.110;2023-09-12T09:56:57;36.70;94.40
7472;DHT22;3777;48.722;8.110;2023-09-12T09:59:26;36.20;92.50
7472;DHT22;3777;48.722;8.110;2023-09-12T10:01:56;36.20;93.60
7472;DHT22;3777;48.722;8.110;2023-09-12T10:04:23;36.10;94.30
7472;DHT22;3777;48.722;8.110;2023-09-12T10:06:51;36.20;93.80
7472;DHT22;3777;48.722;8.110;2023-09-12T10:09:23;36.00;92.70
7472;DHT22;3777;48.722;8.110;2023-09-12T10:11:52;36.20;94.50
7472;DHT22;3777;48.722;8.110;2023-09-12T10:14:22;36.70;92.30
7472;DHT22;3777;48.722;8.110;2023-09-12T10:17:00;37.30;91.60
7472;DHT22;3777;48.722;8.110;2023-09-12T10:19:34;37.90;89.00
7472;DHT22;3777;48.722;8.110;2023-09-12T10:22:07;38.20;89.90
7472;DHT22;3777;48.722;8.110;2023-09-12T10:27:08;39.80;85.10
7472;DHT22;3777;48.722;8.110;2023-09-12T10:29:35;39.90;77.60
7472;DHT22;3777;48.722;8.110;2023-09-12T10:32:04;40.50;73.60
7472;DHT22;3777;48.722;8.110;2023-09-12T10:34:32;40.90;70.40
7472;DHT22;3777;48.722;8.110;2023-09-12T10:37:02;41.20;66.70
7472;DHT22;3777;48.722;8.110;2023-09-12T10:39:31;41.70;64.50
7472;DHT22;3777;48.722;8.110;2023-09-12T10:41:58;41.60;58.20
7472;DHT22;3777;48.722;8.110;2023-09-12T10:44:26;42.40;57.50
7472;DHT22;3777;48.722;8.110;2023-09-12T10:46:53;43.20;54.60
7472;DHT22;3777;48.722;8.110;2023-09-12T10:49:23;43.30;53.30
7472;DHT22;3777;48.722;8.110;2023-09-12T10:51:50;42.50;53.50
7472;DHT22;3777;48.722;8.110;2023-09-12T10:54:25;41.70;51.40
7472;DHT22;3777;48.722;8.110;2023-09-12T10:57:07;41.70;55.30
7472;DHT22;3777;48.722;8.110;2023-09-12T10:59:36;42.20;52.20
7472;DHT22;3777;48.722;8.110;2023-09-12T11:02:31;42.10;51.60
7472;DHT22;3777;48.722;8.110;2023-09-12T11:05:00;42.60;49.90
7472;DHT22;3777;48.722;8.110;2023-09-12T11:07:33;42.90;49.70
7472;DHT22;3777;48.722;8.110;2023-09-12T11:10:20;42.20;48.20
7472;DHT22;3777;48.722;8.110;2023-09-12T11:12:48;42.10;48.20
7472;DHT22;3777;48.722;8.110;2023-09-12T11:15:16;42.40;46.90
7472;DHT22;3777;48.722;8.110;2023-09-12T11:17:44;42.70;47.60
7472;DHT22;3777;48.722;8.110;2023-09-12T11:20:14;42.70;47.40
7472;DHT22;3777;48.722;8.110;2023-09-12T11:22:42;42.40;45.20
7472;DHT22;3777;48.722;8.110;2023-09-12T11:38:28;37.90;49.20
7472;DHT22;3777;48.722;8.110;2023-09-12T11:40:56;36.70;50.80
7472;DHT22;3777;48.722;8.110;2023-09-12T11:43:24;36.20;53.10
7472;DHT22;3777;48.722;8.110;2023-09-12T11:45:52;35.50;54.90
7472;DHT22;3777;48.722;8.110;2023-09-12T11:48:20;35.00;55.60
7472;DHT22;3777;48.722;8.110;2023-09-12T11:50:52;34.20;58.80
7472;DHT22;3777;48.722;8.110;2023-09-12T11:53:20;33.60;58.20
7472;DHT22;3777;48.722;8.110;2023-09-12T11:55:51;33.30;58.20
7472;DHT22;3777;48.722;8.110;2023-09-12T11:58:18;33.30;58.60
7472;DHT22;3777;48.722;8.110;2023-09-12T12:00:46;33.20;60.90
7472;DHT22;3777;48.722;8.110;2023-09-12T12:03:14;33.30;59.10
7472;DHT22;3777;48.722;8.110;2023-09-12T12:05:41;33.10;59.10
7472;DHT22;3777;48.722;8.110;2023-09-12T12:08:07;33.20;61.00
7472;DHT22;3777;48.722;8.110;2023-09-12T12:10:34;33.10;59.40
7472;DHT22;3777;48.722;8.110;2023-09-12T12:13:03;33.10;57.20
7472;DHT22;3777;48.722;8.110;2023-09-12T12:15:30;32.90;59.70
7472;DHT22;3777;48.722;8.110;2023-09-12T12:17:57;32.70;59.20
7472;DHT22;3777;48.722;8.110;2023-09-12T12:20:24;32.70;57.30
7472;DHT22;3777;48.722;8.110;2023-09-12T12:22:53;32.70;58.40
7472;DHT22;3777;48.722;8.110;2023-09-12T12:25:20;32.60;57.40
7472;DHT22;3777;48.722;8.110;2023-09-12T12:27:48;32.70;57.20
7472;DHT22;3777;48.722;8.110;2023-09-12T12:30:18;32.80;59.60
7472;DHT22;3777;48.722;8.110;2023-09-12T12:32:46;32.80;56.70
7472;DHT22;3777;48.722;8.110;2023-09-12T12:35:17;32.70;58.20
7472;DHT22;3777;48.722;8.110;2023-09-12T12:37:44;32.80;55.30
7472;DHT22;3777;48.722;8.110;2023-09-12T12:40:12;33.00;57.20
7472;DHT22;3777;48.722;8.110;2023-09-12T12:42:40;33.30;58.90
7472;DHT22;3777;48.722;8.110;2023-09-12T12:45:11;33.40;55.30
7472;DHT22;3777;48.722;8.110;2023-09-12T12:47:40;33.60;55.90
7472;DHT22;3777;48.722;8.110;2023-09-12T12:50:08;33.80;55.50
7472;DHT22;3777;48.722;8.110;2023-09-12T12:52:37;33.80;54.40
7472;DHT22;3777;48.722;8.110;2023-09-12T12:55:04;33.80;58.40
7472;DHT22;3777;48.722;8.110;2023-09-12T12:57:31;33.80;57.40
7472;DHT22;3777;48.722;8.110;2023-09-12T12:59:59;33.80;57.30
7472;DHT22;3777;48.722;8.110;2023-09-12T13:02:26;33.70;55.50
7472;DHT22;3777;48.722;8.110;2023-09-12T13:04:54;33.60;60.70
7472;DHT22;3777;48.722;8.110;2023-09-12T13:07:21;33.60;58.80
7472;DHT22;3777;48.722;8.110;2023-09-12T13:09:47;33.50;57.80
7472;DHT22;3777;48.722;8.110;2023-09-12T13:12:15;33.60;57.40
7472;DHT22;3777;48.722;8.110;2023-09-12T13:14:43;33.60;57.00
7472;DHT22;3777;48.722;8.110;2023-09-12T13:17:10;33.60;55.40
7472;DHT22;3777;48.722;8.110;2023-09-12T13:19:37;33.50;55.90
7472;DHT22;3777;48.722;8.110;2023-09-12T13:22:05;33.30;56.10
7472;DHT22;3777;48.722;8.110;2023-09-12T13:24:32;33.40;56.40
7472;DHT22;3777;48.722;8.110;2023-09-12T13:26:58;33.50;55.80
7472;DHT22;3777;48.722;8.110;2023-09-12T13:29:25;33.50;62.30
7472;DHT22;3777;48.722;8.110;2023-09-12T13:31:52;33.50;54.60
7472;DHT22;3777;48.722;8.110;2023-09-12T13:34:19;33.60;58.30
7472;DHT22;3777;48.722;8.110;2023-09-12T13:36:45;33.60;56.60
7472;DHT22;3777;48.722;8.110;2023-09-12T13:39:14;33.50;55.00
7472;DHT22;3777;48.722;8.110;2023-09-12T13:41:42;33.30;54.20
7472;DHT22;3777;48.722;8.110;2023-09-12T13:44:10;33.10;54.20
7472;DHT22;3777;48.722;8.110;2023-09-12T13:46:37;33.10;54.30
7472;DHT22;3777;48.722;8.110;2023-09-12T13:49:04;32.90;55.60
7472;DHT22;3777;48.722;8.110;2023-09-12T13:51:31;32.80;57.60
7472;DHT22;3777;48.722;8.110;2023-09-12T13:53:57;32.80;54.10
7472;DHT22;3777;48.722;8.110;2023-09-12T13:56:26;32.80;57.90
7472;DHT22;3777;48.722;8.110;2023-09-12T13:58:53;32.60;55.90
7472;DHT22;3777;48.722;8.110;2023-09-12T14:01:19;32.60;59.30
7472;DHT22;3777;48.722;8.110;2023-09-12T14:03:46;32.50;57.20
7472;DHT22;3777;48.722;8.110;2023-09-12T14:06:13;32.50;55.30
7472;DHT22;3777;48.722;8.110;2023-09-12T14:08:40;32.40;56.70
7472;DHT22;3777;48.722;8.110;2023-09-12T14:11:06;32.30;55.20
7472;DHT22;3777;48.722;8.110;2023-09-12T14:13:35;32.20;57.20
7472;DHT22;3777;48.722;8.110;2023-09-12T14:16:01;32.30;52.80
7472;DHT22;3777;48.722;8.110;2023-09-12T14:18:28;32.20;54.80
7472;DHT22;3777;48.722;8.110;2023-09-12T14:20:55;32.20;54.40
7472;DHT22;3777;48.722;8.110;2023-09-12T14:23:23;32.10;53.60
7472;DHT22;3777;48.722;8.110;2023-09-12T14:25:50;32.10;54.30
7472;DHT22;3777;48.722;8.110;2023-09-12T14:28:17;32.10;55.20
7472;DHT22;3777;48.722;8.110;2023-09-12T14:30:45;32.10;54.50
7472;DHT22;3777;48.722;8.110;2023-09-12T14:33:14;32.00;55.80
7472;DHT22;3777;48.722;8.110;2023-09-12T14:35:41;32.00;55.60
7472;DHT22;3777;48.722;8.110;2023-09-12T14:38:08;32.00;55.40
7472;DHT22;3777;48.722;8.110;2023-09-12T14:40:35;31.90;56.60
7472;DHT22;3777;48.722;8.110;2023-09-12T14:43:01;31.80;54.00
7472;DHT22;3777;48.722;8.110;2023-09-12T14:45:28;31.80;58.00
7472;DHT22;3777;48.722;8.110;2023-09-12T14:47:57;31.80;57.10
7472;DHT22;3777;48.722;8.110;2023-09-12T14:50:24;31.80;53.00
7472;DHT22;3777;48.722;8.110;2023-09-12T14:52:54;31.90;53.90
7472;DHT22;3777;48.722;8.110;2023-09-12T14:55:21;31.80;53.20
7472;DHT22;3777;48.722;8.110;2023-09-12T14:57:48;31.80;53.60
7472;DHT22;3777;48.722;8.110;2023-09-12T15:00:16;31.80;52.20
7472;DHT22;3777;48.722;8.110;2023-09-12T15:02:42;31.70;52.40
7472;DHT22;3777;48.722;8.110;2023-09-12T15:05:10;31.70;50.40
7472;DHT22;3777;48.722;8.110;2023-09-12T15:07:37;31.60;53.10
7472;DHT22;3777;48.722;8.110;2023-09-12T15:10:05;31.60;56.10
7472;DHT22;3777;48.722;8.110;2023-09-12T15:12:32;31.60;54.50
7472;DHT22;3777;48.722;8.110;2023-09-12T15:14:59;31.50;52.40
7472;DHT22;3777;48.722;8.110;2023-09-12T15:17:25;31.50;53.00
7472;DHT22;3777;48.722;8.110;2023-09-12T15:19:52;31.40;54.10
7472;DHT22;3777;48.722;8.110;2023-09-12T15:22:20;31.30;54.60
7472;DHT22;3777;48.722;8.110;2023-09-12T15:24:47;31.30;60.40
7472;DHT22;3777;48.722;8.110;2023-09-12T15:27:14;31.10;59.90
7472;DHT22;3777;48.722;8.110;2023-09-12T15:29:40;31.00;59.90
7472;DHT22;3777;48.722;8.110;2023-09-12T15:32:07;30.90;59.80
7472;DHT22;3777;48.722;8.110;2023-09-12T15:34:34;30.90;58.10
7472;DHT22;3777;48.722;8.110;2023-09-12T15:37:08;30.80;56.80
7472;DHT22;3777;48.722;8.110;2023-09-12T15:39:37;30.70;61.60
7472;DHT22;3777;48.722;8.110;2023-09-12T15:42:04;30.70;58.40
7472;DHT22;3777;48.722;8.110;2023-09-12T15:44:31;30.70;58.80
7472;DHT22;3777;48.722;8.110;2023-09-12T15:46:58;30.70;58.70
7472;DHT22;3777;48.722;8.110;2023-09-12T15:49:25;30.70;61.60
7472;DHT22;3777;48.722;8.110;2023-09-12T15:51:52;30.70;59.80
7472;DHT22;3777;48.722;8.110;2023-09-12T15:54:19;30.70;60.70
7472;DHT22;3777;48.722;8.110;2023-09-12T15:56:47;30.70;63.60
7472;DHT22;3777;48.722;8.110;2023-09-12T15:59:14;30.60;66.70
7472;DHT22;3777;48.722;8.110;2023-09-12T16:01:40;30.60;64.90
7472;DHT22;3777;48.722;8.110;2023-09-12T16:04:07;30.50;64.20
7472;DHT22;3777;48.722;8.110;2023-09-12T16:06:34;30.50;63.30
7472;DHT22;3777;48.722;8.110;2023-09-12T16:09:01;30.40;65.40
7472;DHT22;3777;48.722;8.110;2023-09-12T16:11:28;30.30;64.60
7472;DHT22;3777;48.722;8.110;2023-09-12T16:13:56;30.30;66.30
7472;DHT22;3777;48.722;8.110;2023-09-12T16:16:23;30.20;63.20
7472;DHT22;3777;48.722;8.110;2023-09-12T16:18:50;30.20;68.60
7472;DHT22;3777;48.722;8.110;2023-09-12T16:21:17;30.10;68.20
7472;DHT22;3777;48.722;8.110;2023-09-12T16:23:44;30.00;67.00